createdAt,value
2022-09-15T00:03:27.050Z,98924.73
2022-09-15T00:08:30.387Z,98920.44
2022-09-15T00:13:34.623Z,98912.65
2022-09-15T00:18:39.090Z,98907.98
2022-09-15T00:23:42.623Z,98913.77
2022-09-15T00:28:46.346Z,98914.66
2022-09-15T00:33:51.629Z,98915.71
2022-09-15T00:38:55.346Z,98917.48
2022-09-15T00:44:06.690Z,98912.48
2022-09-15T00:49:21.324Z,98909.86
2022-09-15T00:54:39.679Z,98907.79
2022-09-15T00:59:44.677Z,98910.05
2022-09-15T01:04:49.114Z,98909.17
2022-09-15T01:10:00.120Z,98906.22
2022-09-15T01:15:03.972Z,98905.52
2022-09-15T01:20:26.777Z,98900.31
2022-09-15T01:26:03.864Z,98899.46
2022-09-15T01:31:35.391Z,98899.13
2022-09-15T01:36:48.720Z,98890.09
2022-09-15T01:42:02.417Z,98886.09
2022-09-15T01:47:12.322Z,98880.85
2022-09-15T01:52:18.364Z,98874.05
2022-09-15T01:57:23.399Z,98870.23
2022-09-15T02:02:39.726Z,98869.02
2022-09-15T02:08:16.340Z,98868.70
2022-09-15T02:13:35.308Z,98865.94
2022-09-15T02:18:54.988Z,98866.45
2022-09-15T02:24:06.848Z,98861.77
2022-09-15T02:29:14.462Z,98861.94
2022-09-15T02:34:24.927Z,98853.58
2022-09-15T02:39:33.385Z,98852.21
2022-09-15T02:44:37.424Z,98850.15
2022-09-15T02:49:40.567Z,98849.98
2022-09-15T02:54:43.972Z,98852.26
2022-09-15T03:00:06.157Z,98848.10
2022-09-15T03:05:11.251Z,98850.74
2022-09-15T03:10:14.969Z,98846.58
2022-09-15T03:15:21.857Z,98845.02
2022-09-15T03:20:30.529Z,98841.54
2022-09-15T03:25:34.286Z,98839.81
2022-09-15T03:30:37.448Z,98841.02
2022-09-15T03:35:40.681Z,98837.56
2022-09-15T03:40:44.153Z,98838.80
2022-09-15T03:45:47.946Z,98837.23
2022-09-15T03:50:51.478Z,98833.58
2022-09-15T03:55:54.646Z,98830.43
2022-09-15T04:00:57.934Z,98833.58
2022-09-15T04:06:01.373Z,98827.52
2022-09-15T04:11:06.496Z,98823.75
2022-09-15T04:16:15.891Z,98827.73
2022-09-15T04:21:22.148Z,98828.64
2022-09-15T04:26:34.962Z,98830.59
2022-09-15T04:31:38.712Z,98827.98
2022-09-15T04:36:43.032Z,98830.38
2022-09-15T04:41:46.506Z,98826.11
2022-09-15T04:46:49.890Z,98829.83
2022-09-15T04:51:56.744Z,98833.48
2022-09-15T04:56:59.871Z,98834.67
2022-09-15T05:02:03.627Z,98834.77
2022-09-15T05:07:06.860Z,98829.92
2022-09-15T05:12:10.022Z,98826.14
2022-09-15T05:17:13.229Z,98832.10
2022-09-15T05:22:16.530Z,98825.00
2022-09-15T05:27:19.953Z,98823.79
2022-09-15T05:32:23.479Z,98819.95
2022-09-15T05:37:27.093Z,98814.04
2022-09-15T05:42:32.282Z,98811.39
2022-09-15T05:47:35.644Z,98812.71
2022-09-15T05:52:39.030Z,98819.46
2022-09-15T05:57:42.274Z,98819.32
2022-09-15T06:02:45.502Z,98809.55
2022-09-15T06:07:48.761Z,98804.16
2022-09-15T06:13:15.662Z,98800.19
2022-09-15T06:18:18.893Z,98793.27
2022-09-15T06:23:22.077Z,98790.98
2022-09-15T06:28:25.529Z,98790.17
2022-09-15T06:33:28.846Z,98785.56
2022-09-15T06:38:32.603Z,98784.20
2022-09-15T06:43:36.755Z,98782.69
2022-09-15T06:48:48.104Z,98785.95
2022-09-15T06:53:54.177Z,98785.88
2022-09-15T06:58:58.061Z,98785.67
2022-09-15T07:04:10.268Z,98787.14
2022-09-15T07:09:14.023Z,98785.96
2022-09-15T07:14:17.395Z,98788.42
2022-09-15T07:19:20.757Z,98798.73
2022-09-15T07:24:23.974Z,98799.33
2022-09-15T07:29:27.773Z,98797.42
2022-09-15T07:34:34.815Z,98797.36
2022-09-15T07:39:37.956Z,98791.96
2022-09-15T07:44:41.279Z,98796.38
2022-09-15T07:49:44.581Z,98787.20
2022-09-15T07:54:47.746Z,98786.01
2022-09-15T07:59:50.876Z,98781.69
2022-09-15T08:04:54.035Z,98777.70
2022-09-15T08:09:57.502Z,98769.69
2022-09-15T08:15:00.652Z,98766.98
2022-09-15T08:20:04.407Z,98759.79
2022-09-15T08:25:11.092Z,98755.41
2022-09-15T08:30:14.563Z,98756.17
2022-09-15T08:35:19.177Z,98763.02
2022-09-15T08:40:46.303Z,98764.19
2022-09-15T08:46:01.372Z,98761.75
2022-09-15T08:51:11.228Z,98764.64
2022-09-15T08:56:19.048Z,98761.99
2022-09-15T09:01:59.873Z,98758.46
2022-09-15T09:07:14.868Z,98754.50
2022-09-15T09:12:56.836Z,98758.58
2022-09-15T09:18:00.033Z,98755.45
2022-09-15T09:23:09.305Z,98753.79
2022-09-15T09:28:28.463Z,98749.59
2022-09-15T09:33:38.711Z,98743.41
2022-09-15T09:38:45.524Z,98746.04
2022-09-15T09:43:59.654Z,98749.34
2022-09-15T09:49:47.472Z,98750.14
2022-09-15T09:55:05.553Z,98744.08
2022-09-15T10:00:34.752Z,98751.55
2022-09-15T10:05:38.227Z,98747.84
2022-09-15T10:10:53.531Z,98751.73
2022-09-15T10:16:02.747Z,98751.71
2022-09-15T10:21:10.002Z,98751.55
2022-09-15T10:26:16.288Z,98752.95
2022-09-15T10:31:33.323Z,98760.21
2022-09-15T10:36:37.791Z,98760.03
2022-09-15T10:42:09.270Z,98760.35
2022-09-15T10:47:44.112Z,98770.89
2022-09-15T10:52:59.368Z,98766.94
2022-09-15T10:58:12.753Z,98768.16
2022-09-15T11:03:51.211Z,98762.62
2022-09-15T11:09:03.948Z,98752.52
2022-09-15T11:14:12.935Z,98749.04
2022-09-15T11:19:42.846Z,98744.98
2022-09-15T11:24:56.034Z,98751.92
2022-09-15T11:30:24.029Z,98745.52
2022-09-15T11:35:31.894Z,98744.67
2022-09-15T11:40:45.104Z,98744.54
2022-09-15T11:45:53.930Z,98747.41
2022-09-15T11:51:01.971Z,98746.79
2022-09-15T11:56:21.078Z,98743.15
2022-09-15T12:01:52.955Z,98749.05
2022-09-15T12:12:11.615Z,98735.54
2022-09-15T12:17:23.703Z,98729.72
2022-09-15T12:22:43.810Z,98728.23
2022-09-15T12:28:24.508Z,98725.60
2022-09-15T12:33:43.769Z,98726.17
2022-09-15T12:38:49.872Z,98721.33
2022-09-15T12:43:57.806Z,98718.52
2022-09-15T12:49:04.218Z,98718.34
2022-09-15T12:54:09.168Z,98716.67
2022-09-15T12:59:15.379Z,98715.35
2022-09-15T13:04:51.361Z,98714.55
2022-09-15T13:10:17.340Z,98712.26
2022-09-15T13:15:22.997Z,98710.61
2022-09-15T13:20:34.618Z,98713.52
2022-09-15T13:25:41.033Z,98708.27
2022-09-15T13:31:01.174Z,98703.13
2022-09-15T13:42:19.709Z,98708.43
2022-09-15T13:47:45.676Z,98699.35
2022-09-15T13:53:01.669Z,98705.16
2022-09-15T14:03:50.848Z,98706.61
2022-09-15T14:08:59.162Z,98704.54
2022-09-15T14:14:03.311Z,98697.84
2022-09-15T14:19:39.960Z,98697.77
2022-09-15T14:24:43.733Z,98711.88
2022-09-15T14:29:58.057Z,98717.10
2022-09-15T14:35:06.740Z,98721.56
2022-09-15T14:40:28.232Z,98720.49
2022-09-15T14:51:13.678Z,78991.17
2022-09-15T14:56:25.446Z,-1.00
2022-09-15T15:01:37.443Z,-1.00
2022-09-15T15:06:52.937Z,-1.00
2022-09-15T15:12:01.186Z,-1.00
2022-09-15T15:17:06.933Z,-1.00
2022-09-15T15:22:14.562Z,-1.00
2022-09-15T15:27:42.512Z,-1.00
2022-09-15T15:32:46.167Z,-1.00
2022-09-15T15:37:59.713Z,-1.00
2022-09-15T15:43:26.548Z,-1.00
2022-09-15T15:48:36.842Z,-1.00
2022-09-15T15:53:42.423Z,-1.00
2022-09-15T15:58:45.763Z,-1.00
2022-09-15T16:03:48.958Z,-1.00
2022-09-15T16:08:53.374Z,-1.00
2022-09-15T16:13:56.730Z,-1.00
2022-09-15T16:18:59.962Z,-1.00
2022-09-15T16:24:12.063Z,-1.00
2022-09-15T16:29:15.170Z,-1.00
2022-09-15T16:34:18.830Z,-1.00
2022-09-15T16:39:21.969Z,-1.00
2022-09-15T16:44:25.133Z,-1.00
2022-09-15T16:49:28.563Z,-1.00
2022-09-15T16:54:33.423Z,-1.00
2022-09-15T16:59:37.476Z,-1.00
2022-09-15T17:04:40.666Z,-1.00
2022-09-15T17:09:44.631Z,-1.00
2022-09-15T17:14:47.886Z,-1.00
2022-09-15T17:19:51.094Z,-1.00
2022-09-15T17:24:54.378Z,-1.00
2022-09-15T17:29:57.665Z,-1.00
2022-09-15T17:35:00.827Z,-1.00
2022-09-15T17:40:04.213Z,-1.00
2022-09-15T17:45:30.679Z,-1.00
2022-09-15T17:50:35.977Z,-1.00
2022-09-15T17:55:39.964Z,-1.00
2022-09-15T18:00:45.038Z,-1.00
2022-09-15T18:05:48.878Z,-1.00
2022-09-15T18:10:52.620Z,-1.00
2022-09-15T18:15:57.164Z,-1.00
2022-09-15T18:21:01.269Z,-1.00
2022-09-15T18:26:04.579Z,-1.00
2022-09-15T18:31:07.789Z,-1.00
2022-09-15T18:36:12.274Z,-1.00
2022-09-15T18:41:15.453Z,-1.00
2022-09-15T18:46:18.866Z,-1.00
2022-09-15T18:51:29.146Z,-1.00
2022-09-15T18:56:38.830Z,-1.00
2022-09-15T19:01:42.107Z,-1.00
2022-09-15T19:06:45.830Z,-1.00
2022-09-15T19:11:48.985Z,-1.00
2022-09-15T19:16:58.007Z,-1.00
2022-09-15T19:22:01.778Z,-1.00
2022-09-15T19:27:06.912Z,-1.00
2022-09-15T19:32:13.677Z,-1.00
2022-09-15T19:37:19.404Z,-1.00
2022-09-15T19:42:22.614Z,-1.00
2022-09-15T19:47:25.877Z,-1.00
2022-09-15T19:52:29.445Z,-1.00
2022-09-15T19:57:32.596Z,-1.00
2022-09-15T20:02:36.024Z,-1.00
2022-09-15T20:07:39.203Z,-1.00
2022-09-15T20:12:42.363Z,-1.00
2022-09-15T20:17:45.733Z,-1.00
2022-09-15T20:22:50.291Z,-1.00
2022-09-15T20:27:53.533Z,-1.00
2022-09-15T20:32:57.509Z,-1.00
2022-09-15T20:38:00.891Z,-1.00
2022-09-15T20:43:04.107Z,-1.00
2022-09-15T20:48:07.362Z,-1.00
2022-09-15T20:53:10.510Z,-1.00
2022-09-15T20:58:13.716Z,-1.00
2022-09-15T21:03:17.045Z,-1.00
2022-09-15T21:08:20.342Z,-1.00
2022-09-15T21:13:23.825Z,-1.00
2022-09-15T21:18:34.804Z,-1.00
2022-09-15T21:23:49.824Z,-1.00
2022-09-15T21:28:54.763Z,-1.00
2022-09-15T21:34:01.263Z,-1.00
2022-09-15T21:39:04.546Z,-1.00
2022-09-15T21:44:11.671Z,-1.00
2022-09-15T21:49:15.056Z,-1.00
2022-09-15T21:54:18.408Z,-1.00
2022-09-15T21:59:21.846Z,-1.00
2022-09-15T22:04:25.062Z,-1.00
2022-09-15T22:09:28.228Z,-1.00
2022-09-15T22:14:31.787Z,-1.00
2022-09-15T22:19:35.470Z,-1.00
2022-09-15T22:24:38.759Z,-1.00
2022-09-15T22:29:42.102Z,-1.00
2022-09-15T22:34:45.858Z,-1.00
2022-09-15T22:39:58.891Z,-1.00
2022-09-15T22:45:03.263Z,-1.00
2022-09-15T22:50:06.839Z,-1.00
2022-09-15T22:55:10.076Z,-1.00
2022-09-15T23:00:13.766Z,-1.00
2022-09-15T23:05:17.106Z,-1.00
2022-09-15T23:10:20.245Z,-1.00
2022-09-15T23:15:26.636Z,-1.00
2022-09-15T23:20:29.828Z,-1.00
2022-09-15T23:25:32.989Z,-1.00
2022-09-15T23:30:38.551Z,-1.00
2022-09-15T23:35:41.777Z,-1.00
2022-09-15T23:40:48.628Z,-1.00
2022-09-15T23:45:51.904Z,-1.00
2022-09-15T23:50:55.404Z,-1.00
2022-09-15T23:55:59.044Z,-1.00
